Strafford, Vermont
Current Conditions -  °F | °C
As of 1:53 AM on Sunday 26 Oct 2014 (Local Time) from KLEB Reporting Station
Clear Clear  
Wind Chill: 41°   Ceiling: Unl
Heat Index: 41°   Visibility: 7mi
Dew Point: 38°   Wind: 3mph
Humidity: 89%   Direction: 160°SSE
Pressure: 29.44"   Gusts: NA
Location:  43.87°N, 72.38°W
Report Text: KLEB 260553Z AUTO 16003KT 7SM CLR 05/03 A2944 RMK AO2 SLP967 60000 T00500033 10122 20050 58013
Loading
Personal Weather Stations






























Interactive Weather Map
Tropical Storm Tracking
New forecast layout! Learn more

10-Day Weather Forecast

Advertisements
Track Severe Weather on mobile